Otis, LA (71466)

7:01 AM CDT on May 05, 2015 (GMT -0500)
Downs Lane | | Change Station
CLOSE
Current Station
Personal Weather Station
Location: Alexandria, LA
Elevation: 69 ft
Nearby Weather Stations

Elev 69 ft 31.28 °N, 92.57 °W | Updated 41 seconds ago

Partly Cloudy
Partly Cloudy
63.9 °F
Feels Like 63.9 °F
N
3.7
Wind Variable Wind from SE

Today
High -- | Low -- °F
--% Chance of Precip.
Yesterday
High -- | Low -- °F
Precip. -- in
6:22 AM 7:52 PM
Full, 98% visible
Pressure 30.13 in
Visibility 8.0 miles
Clouds Mostly Cloudy 10000 ft
Dew Point 62 °F
Humidity 94%
Rainfall 0.00 in
Snow Depth Not available.
UV 0 out of 12
Pollen 6.50 out of 12
Air Quality Not available.
Flu Activity Sporadic
METAR KAEX 051153Z 11008KT 8SM BKN100 19/17 A3012 RMK AO2 SLP201 70007 T01890172 10211 20183 53009

More Conditions Fewer Conditions

Pressure 30.13 in
Visibility 8.0 miles
Clouds Mostly Cloudy 10000 ft
Dew Point 62 °F
Humidity 94%
Rainfall 0.00 in
Snow Depth Not available.
UV 0 out of 12
Pollen 6.50 out of 12
Air Quality Not available.
Flu Activity Sporadic
METAR KAEX 051153Z 11008KT 8SM BKN100 19/17 A3012 RMK AO2 SLP201 70007 T01890172 10211 20183 53009

More Conditions Fewer Conditions

Nepal has a long way to go to dig out and rebuild from a devastating earthquake. We have teamed up with several charities and organizations to make contributing to the relief effort as easy as possible.
How you can help: Portlight Strategies | Red Cross

10-Day Weather Forecast

Almanac

Astronomy

May. 05, 2015 Rise Set
Actual Time
Civil Twilight
Nautical Twilight
Astronomical Twilight
Moon
Length of Visible Light
Length of Day
Tomorrow will be .
, % of the Moon is Illuminated

Today's Extremes

State Highs State Lows

Community

WunderPhotos

Upload Photos

1,818,861 photos uploaded!

WunderBlogs® & News

Nearby

Air Quality

  Air Quality AQ Index Pollutant
Not available.

Snow Depth

Station Depth Elevation

Earthquake Activity

City Distance Mag. Time & Date
Minimum magnitude displayed is 2.5.

Coastal Water Temperatures

Place Temperature

Stations

Nearby Weather Stations

Station Location Temp. Windchill Dew Point Humidity Wind Precip. Elev Updated Type